sensor_id;sensor_type;location;lat;lon;timestamp;P1;durP1;ratioP1;P2;durP2;ratioP2
42192;SDS011;52467;40.114;18.306;2022-12-18T00:03:51;32.85;;;14.70;;
42192;SDS011;52467;40.114;18.306;2022-12-18T00:06:21;31.65;;;14.90;;
42192;SDS011;52467;40.114;18.306;2022-12-18T00:08:49;28.67;;;14.80;;
42192;SDS011;52467;40.114;18.306;2022-12-18T00:11:18;29.02;;;14.65;;
42192;SDS011;52467;40.114;18.306;2022-12-18T00:13:50;26.85;;;13.43;;
42192;SDS011;52467;40.114;18.306;2022-12-18T00:16:20;26.52;;;13.55;;
42192;SDS011;52467;40.114;18.306;2022-12-18T00:18:49;27.00;;;13.80;;
42192;SDS011;52467;40.114;18.306;2022-12-18T00:21:17;26.33;;;12.80;;
42192;SDS011;52467;40.114;18.306;2022-12-18T00:23:46;26.23;;;12.55;;
42192;SDS011;52467;40.114;18.306;2022-12-18T00:26:15;25.67;;;12.63;;
42192;SDS011;52467;40.114;18.306;2022-12-18T00:28:48;24.10;;;12.48;;
42192;SDS011;52467;40.114;18.306;2022-12-18T00:31:18;24.67;;;12.15;;
42192;SDS011;52467;40.114;18.306;2022-12-18T00:33:48;25.90;;;13.10;;
42192;SDS011;52467;40.114;18.306;2022-12-18T00:36:17;27.60;;;13.85;;
42192;SDS011;52467;40.114;18.306;2022-12-18T00:38:46;33.55;;;15.80;;
42192;SDS011;52467;40.114;18.306;2022-12-18T00:41:17;32.05;;;15.15;;
42192;SDS011;52467;40.114;18.306;2022-12-18T00:44:04;29.38;;;15.38;;
42192;SDS011;52467;40.114;18.306;2022-12-18T00:46:32;28.92;;;15.35;;
42192;SDS011;52467;40.114;18.306;2022-12-18T00:49:00;29.07;;;14.93;;
42192;SDS011;52467;40.114;18.306;2022-12-18T00:51:28;32.28;;;15.07;;
42192;SDS011;52467;40.114;18.306;2022-12-18T00:53:55;28.80;;;15.20;;
42192;SDS011;52467;40.114;18.306;2022-12-18T00:56:23;33.67;;;15.60;;
42192;SDS011;52467;40.114;18.306;2022-12-18T00:58:52;30.23;;;15.20;;
42192;SDS011;52467;40.114;18.306;2022-12-18T01:01:19;33.67;;;15.50;;
42192;SDS011;52467;40.114;18.306;2022-12-18T01:03:46;26.00;;;15.20;;
42192;SDS011;52467;40.114;18.306;2022-12-18T01:06:16;32.78;;;16.35;;
42192;SDS011;52467;40.114;18.306;2022-12-18T01:08:43;32.65;;;16.15;;
42192;SDS011;52467;40.114;18.306;2022-12-18T01:11:15;28.57;;;15.03;;
42192;SDS011;52467;40.114;18.306;2022-12-18T01:13:44;29.40;;;14.52;;
42192;SDS011;52467;40.114;18.306;2022-12-18T01:16:12;28.95;;;14.68;;
42192;SDS011;52467;40.114;18.306;2022-12-18T01:18:40;30.92;;;15.45;;
42192;SDS011;52467;40.114;18.306;2022-12-18T01:21:11;31.25;;;15.85;;
42192;SDS011;52467;40.114;18.306;2022-12-18T01:23:40;32.03;;;15.38;;
42192;SDS011;52467;40.114;18.306;2022-12-18T01:26:12;31.92;;;15.70;;
42192;SDS011;52467;40.114;18.306;2022-12-18T01:28:43;31.10;;;16.35;;
42192;SDS011;52467;40.114;18.306;2022-12-18T01:33:46;29.73;;;15.77;;
42192;SDS011;52467;40.114;18.306;2022-12-18T01:36:21;22.98;;;13.40;;
42192;SDS011;52467;40.114;18.306;2022-12-18T01:38:50;27.25;;;13.88;;
42192;SDS011;52467;40.114;18.306;2022-12-18T01:41:19;29.48;;;13.15;;
42192;SDS011;52467;40.114;18.306;2022-12-18T01:43:55;22.67;;;13.40;;
42192;SDS011;52467;40.114;18.306;2022-12-18T01:46:26;32.23;;;13.77;;
42192;SDS011;52467;40.114;18.306;2022-12-18T01:48:57;28.02;;;14.77;;
42192;SDS011;52467;40.114;18.306;2022-12-18T01:51:27;24.95;;;13.68;;
42192;SDS011;52467;40.114;18.306;2022-12-18T01:53:56;27.88;;;11.90;;
42192;SDS011;52467;40.114;18.306;2022-12-18T01:56:24;18.58;;;9.98;;
42192;SDS011;52467;40.114;18.306;2022-12-18T01:58:56;16.67;;;8.35;;
42192;SDS011;52467;40.114;18.306;2022-12-18T02:01:28;14.60;;;7.63;;
42192;SDS011;52467;40.114;18.306;2022-12-18T02:06:52;13.60;;;7.40;;
42192;SDS011;52467;40.114;18.306;2022-12-18T02:10:06;20.77;;;8.75;;
42192;SDS011;52467;40.114;18.306;2022-12-18T02:12:43;21.77;;;8.27;;
42192;SDS011;52467;40.114;18.306;2022-12-18T02:18:11;19.73;;;10.73;;
42192;SDS011;52467;40.114;18.306;2022-12-18T02:20:43;26.35;;;12.20;;
42192;SDS011;52467;40.114;18.306;2022-12-18T02:26:01;24.65;;;11.43;;
42192;SDS011;52467;40.114;18.306;2022-12-18T02:28:43;23.60;;;11.90;;
42192;SDS011;52467;40.114;18.306;2022-12-18T02:31:15;27.43;;;12.17;;
42192;SDS011;52467;40.114;18.306;2022-12-18T02:33:46;24.83;;;12.27;;
42192;SDS011;52467;40.114;18.306;2022-12-18T02:36:14;31.57;;;15.47;;
42192;SDS011;52467;40.114;18.306;2022-12-18T02:38:44;31.75;;;15.48;;
42192;SDS011;52467;40.114;18.306;2022-12-18T02:41:14;30.58;;;15.88;;
42192;SDS011;52467;40.114;18.306;2022-12-18T02:43:47;40.03;;;18.73;;
42192;SDS011;52467;40.114;18.306;2022-12-18T02:46:49;39.92;;;19.05;;
42192;SDS011;52467;40.114;18.306;2022-12-18T02:54:36;43.13;;;20.42;;
42192;SDS011;52467;40.114;18.306;2022-12-18T03:00:04;38.80;;;20.35;;
42192;SDS011;52467;40.114;18.306;2022-12-18T03:02:41;42.33;;;19.15;;
42192;SDS011;52467;40.114;18.306;2022-12-18T03:05:40;34.03;;;18.83;;
42192;SDS011;52467;40.114;18.306;2022-12-18T03:08:20;37.45;;;19.13;;
42192;SDS011;52467;40.114;18.306;2022-12-18T03:10:50;30.70;;;17.23;;
42192;SDS011;52467;40.114;18.306;2022-12-18T03:13:34;31.15;;;17.15;;
42192;SDS011;52467;40.114;18.306;2022-12-18T03:16:05;31.08;;;16.00;;
42192;SDS011;52467;40.114;18.306;2022-12-18T03:18:46;33.22;;;16.65;;
42192;SDS011;52467;40.114;18.306;2022-12-18T03:21:25;29.45;;;15.23;;
42192;SDS011;52467;40.114;18.306;2022-12-18T03:23:59;29.98;;;15.25;;
42192;SDS011;52467;40.114;18.306;2022-12-18T03:26:27;27.43;;;13.43;;
42192;SDS011;52467;40.114;18.306;2022-12-18T03:29:00;25.73;;;13.90;;
42192;SDS011;52467;40.114;18.306;2022-12-18T03:31:32;28.90;;;14.27;;
42192;SDS011;52467;40.114;18.306;2022-12-18T03:34:03;28.40;;;14.50;;
42192;SDS011;52467;40.114;18.306;2022-12-18T03:36:39;28.83;;;12.80;;
42192;SDS011;52467;40.114;18.306;2022-12-18T03:39:07;26.05;;;13.38;;
42192;SDS011;52467;40.114;18.306;2022-12-18T03:41:43;21.53;;;12.30;;
42192;SDS011;52467;40.114;18.306;2022-12-18T03:44:41;19.38;;;10.43;;
42192;SDS011;52467;40.114;18.306;2022-12-18T03:47:14;19.58;;;10.15;;
42192;SDS011;52467;40.114;18.306;2022-12-18T03:49:48;20.73;;;10.85;;
42192;SDS011;52467;40.114;18.306;2022-12-18T03:52:25;23.75;;;11.05;;
42192;SDS011;52467;40.114;18.306;2022-12-18T03:54:59;21.70;;;10.50;;
42192;SDS011;52467;40.114;18.306;2022-12-18T03:57:28;18.35;;;10.20;;
42192;SDS011;52467;40.114;18.306;2022-12-18T03:59:57;20.08;;;9.90;;
42192;SDS011;52467;40.114;18.306;2022-12-18T04:02:41;22.27;;;9.52;;
42192;SDS011;52467;40.114;18.306;2022-12-18T04:05:23;19.35;;;10.10;;
42192;SDS011;52467;40.114;18.306;2022-12-18T04:07:51;20.23;;;9.93;;
42192;SDS011;52467;40.114;18.306;2022-12-18T04:10:21;21.67;;;9.50;;
42192;SDS011;52467;40.114;18.306;2022-12-18T04:12:49;18.20;;;9.25;;
42192;SDS011;52467;40.114;18.306;2022-12-18T04:15:17;20.50;;;9.73;;
42192;SDS011;52467;40.114;18.306;2022-12-18T04:17:48;19.80;;;9.43;;
42192;SDS011;52467;40.114;18.306;2022-12-18T04:20:19;24.25;;;10.07;;
42192;SDS011;52467;40.114;18.306;2022-12-18T04:22:47;20.17;;;9.93;;
42192;SDS011;52467;40.114;18.306;2022-12-18T04:25:17;18.23;;;9.90;;
42192;SDS011;52467;40.114;18.306;2022-12-18T04:28:04;16.38;;;9.55;;
42192;SDS011;52467;40.114;18.306;2022-12-18T04:30:33;20.13;;;10.35;;
42192;SDS011;52467;40.114;18.306;2022-12-18T04:33:00;19.02;;;9.88;;
42192;SDS011;52467;40.114;18.306;2022-12-18T04:35:29;18.37;;;10.33;;
42192;SDS011;52467;40.114;18.306;2022-12-18T04:37:57;21.30;;;9.57;;
42192;SDS011;52467;40.114;18.306;2022-12-18T04:40:26;19.17;;;9.82;;
42192;SDS011;52467;40.114;18.306;2022-12-18T04:42:53;18.17;;;9.90;;
42192;SDS011;52467;40.114;18.306;2022-12-18T04:45:20;20.02;;;9.63;;
42192;SDS011;52467;40.114;18.306;2022-12-18T04:47:48;18.63;;;9.43;;
42192;SDS011;52467;40.114;18.306;2022-12-18T04:50:15;18.48;;;8.57;;
42192;SDS011;52467;40.114;18.306;2022-12-18T04:52:44;17.10;;;9.20;;
42192;SDS011;52467;40.114;18.306;2022-12-18T04:55:12;16.05;;;9.20;;
42192;SDS011;52467;40.114;18.306;2022-12-18T04:57:39;21.83;;;9.38;;
42192;SDS011;52467;40.114;18.306;2022-12-18T05:00:07;20.10;;;9.20;;
42192;SDS011;52467;40.114;18.306;2022-12-18T05:02:34;18.75;;;9.00;;
42192;SDS011;52467;40.114;18.306;2022-12-18T05:05:02;16.33;;;8.60;;
42192;SDS011;52467;40.114;18.306;2022-12-18T05:07:30;18.63;;;9.40;;
42192;SDS011;52467;40.114;18.306;2022-12-18T05:09:57;19.25;;;9.13;;
42192;SDS011;52467;40.114;18.306;2022-12-18T05:12:24;17.90;;;9.50;;
42192;SDS011;52467;40.114;18.306;2022-12-18T05:14:51;20.25;;;9.07;;
42192;SDS011;52467;40.114;18.306;2022-12-18T05:17:19;20.10;;;7.80;;
42192;SDS011;52467;40.114;18.306;2022-12-18T05:19:46;17.48;;;7.70;;
42192;SDS011;52467;40.114;18.306;2022-12-18T05:22:13;15.05;;;7.38;;
42192;SDS011;52467;40.114;18.306;2022-12-18T05:24:42;18.50;;;8.07;;
42192;SDS011;52467;40.114;18.306;2022-12-18T05:27:09;18.00;;;7.27;;
42192;SDS011;52467;40.114;18.306;2022-12-18T05:29:36;17.05;;;7.32;;
42192;SDS011;52467;40.114;18.306;2022-12-18T05:32:04;14.40;;;6.78;;
42192;SDS011;52467;40.114;18.306;2022-12-18T05:34:31;16.57;;;7.20;;
42192;SDS011;52467;40.114;18.306;2022-12-18T05:37:00;17.10;;;6.38;;
42192;SDS011;52467;40.114;18.306;2022-12-18T05:39:27;14.38;;;6.22;;
42192;SDS011;52467;40.114;18.306;2022-12-18T05:41:54;11.90;;;5.90;;
42192;SDS011;52467;40.114;18.306;2022-12-18T05:44:21;13.00;;;5.80;;
42192;SDS011;52467;40.114;18.306;2022-12-18T05:46:49;10.57;;;5.50;;
42192;SDS011;52467;40.114;18.306;2022-12-18T05:49:16;12.55;;;5.90;;
42192;SDS011;52467;40.114;18.306;2022-12-18T05:51:43;15.25;;;6.20;;
42192;SDS011;52467;40.114;18.306;2022-12-18T05:54:11;13.70;;;5.72;;
42192;SDS011;52467;40.114;18.306;2022-12-18T05:56:38;13.73;;;5.72;;
42192;SDS011;52467;40.114;18.306;2022-12-18T05:59:07;14.60;;;5.63;;
42192;SDS011;52467;40.114;18.306;2022-12-18T06:01:34;12.65;;;6.00;;
42192;SDS011;52467;40.114;18.306;2022-12-18T06:04:02;12.98;;;5.25;;
42192;SDS011;52467;40.114;18.306;2022-12-18T06:06:29;12.52;;;5.60;;
42192;SDS011;52467;40.114;18.306;2022-12-18T06:08:57;15.10;;;5.45;;
42192;SDS011;52467;40.114;18.306;2022-12-18T06:11:25;12.50;;;5.78;;
42192;SDS011;52467;40.114;18.306;2022-12-18T06:13:53;12.52;;;5.00;;
42192;SDS011;52467;40.114;18.306;2022-12-18T06:16:23;15.93;;;5.35;;
42192;SDS011;52467;40.114;18.306;2022-12-18T06:18:50;12.23;;;5.50;;
42192;SDS011;52467;40.114;18.306;2022-12-18T06:21:18;12.93;;;4.80;;
42192;SDS011;52467;40.114;18.306;2022-12-18T06:23:45;11.50;;;5.10;;
42192;SDS011;52467;40.114;18.306;2022-12-18T06:26:14;11.88;;;5.32;;
42192;SDS011;52467;40.114;18.306;2022-12-18T06:28:41;9.90;;;4.95;;
42192;SDS011;52467;40.114;18.306;2022-12-18T06:31:09;14.65;;;5.20;;
42192;SDS011;52467;40.114;18.306;2022-12-18T06:33:37;14.02;;;5.03;;
42192;SDS011;52467;40.114;18.306;2022-12-18T06:36:08;12.90;;;5.03;;
42192;SDS011;52467;40.114;18.306;2022-12-18T06:38:38;9.75;;;4.57;;
42192;SDS011;52467;40.114;18.306;2022-12-18T06:41:08;13.40;;;4.85;;
42192;SDS011;52467;40.114;18.306;2022-12-18T06:43:35;8.77;;;4.80;;
42192;SDS011;52467;40.114;18.306;2022-12-18T06:46:03;9.60;;;4.18;;
42192;SDS011;52467;40.114;18.306;2022-12-18T06:48:31;16.10;;;5.03;;
42192;SDS011;52467;40.114;18.306;2022-12-18T06:50:59;10.85;;;5.22;;
42192;SDS011;52467;40.114;18.306;2022-12-18T06:53:26;10.20;;;4.25;;
42192;SDS011;52467;40.114;18.306;2022-12-18T06:56:00;12.88;;;4.72;;
42192;SDS011;52467;40.114;18.306;2022-12-18T06:58:35;11.27;;;4.65;;
42192;SDS011;52467;40.114;18.306;2022-12-18T07:01:03;7.57;;;4.05;;
42192;SDS011;52467;40.114;18.306;2022-12-18T07:03:32;14.57;;;4.40;;
42192;SDS011;52467;40.114;18.306;2022-12-18T07:05:59;13.73;;;5.00;;
42192;SDS011;52467;40.114;18.306;2022-12-18T07:08:26;9.52;;;4.60;;
42192;SDS011;52467;40.114;18.306;2022-12-18T07:10:55;9.98;;;4.28;;
42192;SDS011;52467;40.114;18.306;2022-12-18T07:13:23;12.10;;;4.90;;
42192;SDS011;52467;40.114;18.306;2022-12-18T07:15:50;14.57;;;5.10;;
42192;SDS011;52467;40.114;18.306;2022-12-18T07:18:18;12.73;;;5.18;;
42192;SDS011;52467;40.114;18.306;2022-12-18T07:20:45;14.65;;;5.25;;
42192;SDS011;52467;40.114;18.306;2022-12-18T07:23:12;14.50;;;5.22;;
42192;SDS011;52467;40.114;18.306;2022-12-18T07:25:40;15.32;;;5.10;;
42192;SDS011;52467;40.114;18.306;2022-12-18T07:28:07;15.13;;;5.22;;
42192;SDS011;52467;40.114;18.306;2022-12-18T07:30:37;9.05;;;4.50;;
42192;SDS011;52467;40.114;18.306;2022-12-18T07:33:04;13.13;;;4.85;;
42192;SDS011;52467;40.114;18.306;2022-12-18T07:35:32;14.35;;;5.53;;
42192;SDS011;52467;40.114;18.306;2022-12-18T07:38:00;11.73;;;4.93;;
42192;SDS011;52467;40.114;18.306;2022-12-18T07:40:27;11.27;;;4.43;;
42192;SDS011;52467;40.114;18.306;2022-12-18T07:42:55;10.43;;;4.70;;
42192;SDS011;52467;40.114;18.306;2022-12-18T07:45:22;12.57;;;4.82;;
42192;SDS011;52467;40.114;18.306;2022-12-18T07:47:50;11.63;;;4.63;;
42192;SDS011;52467;40.114;18.306;2022-12-18T07:50:17;13.57;;;5.07;;
42192;SDS011;52467;40.114;18.306;2022-12-18T07:52:45;14.17;;;5.40;;
42192;SDS011;52467;40.114;18.306;2022-12-18T07:55:13;12.25;;;4.85;;
42192;SDS011;52467;40.114;18.306;2022-12-18T07:57:40;15.07;;;5.57;;
42192;SDS011;52467;40.114;18.306;2022-12-18T08:00:15;14.25;;;4.90;;
42192;SDS011;52467;40.114;18.306;2022-12-18T08:02:42;13.50;;;4.70;;
42192;SDS011;52467;40.114;18.306;2022-12-18T08:05:10;14.43;;;5.75;;
42192;SDS011;52467;40.114;18.306;2022-12-18T08:07:37;14.88;;;4.97;;
42192;SDS011;52467;40.114;18.306;2022-12-18T08:10:05;13.45;;;4.97;;
42192;SDS011;52467;40.114;18.306;2022-12-18T08:12:34;12.07;;;4.95;;
42192;SDS011;52467;40.114;18.306;2022-12-18T08:15:01;12.77;;;4.78;;
42192;SDS011;52467;40.114;18.306;2022-12-18T08:17:28;13.20;;;5.25;;
42192;SDS011;52467;40.114;18.306;2022-12-18T08:19:56;13.43;;;5.00;;
42192;SDS011;52467;40.114;18.306;2022-12-18T08:22:23;16.77;;;4.97;;
42192;SDS011;52467;40.114;18.306;2022-12-18T08:24:50;18.73;;;5.37;;
42192;SDS011;52467;40.114;18.306;2022-12-18T08:27:17;13.73;;;4.47;;
42192;SDS011;52467;40.114;18.306;2022-12-18T08:30:00;12.57;;;4.68;;
42192;SDS011;52467;40.114;18.306;2022-12-18T08:32:27;16.10;;;4.90;;
42192;SDS011;52467;40.114;18.306;2022-12-18T08:34:55;15.18;;;4.55;;
42192;SDS011;52467;40.114;18.306;2022-12-18T08:37:22;12.02;;;4.15;;
42192;SDS011;52467;40.114;18.306;2022-12-18T08:39:49;13.00;;;4.50;;
42192;SDS011;52467;40.114;18.306;2022-12-18T08:42:17;16.10;;;4.93;;
42192;SDS011;52467;40.114;18.306;2022-12-18T08:45:03;18.13;;;4.78;;
42192;SDS011;52467;40.114;18.306;2022-12-18T08:47:31;11.27;;;4.47;;
42192;SDS011;52467;40.114;18.306;2022-12-18T08:49:58;10.55;;;3.85;;
42192;SDS011;52467;40.114;18.306;2022-12-18T08:52:25;11.30;;;3.93;;
42192;SDS011;52467;40.114;18.306;2022-12-18T08:54:53;12.70;;;4.25;;
42192;SDS011;52467;40.114;18.306;2022-12-18T08:57:20;12.18;;;4.38;;
42192;SDS011;52467;40.114;18.306;2022-12-18T08:59:47;14.90;;;4.25;;
42192;SDS011;52467;40.114;18.306;2022-12-18T09:02:14;10.88;;;3.72;;
42192;SDS011;52467;40.114;18.306;2022-12-18T09:04:42;17.17;;;4.07;;
42192;SDS011;52467;40.114;18.306;2022-12-18T09:07:10;15.13;;;3.20;;
42192;SDS011;52467;40.114;18.306;2022-12-18T09:09:37;13.18;;;3.20;;
42192;SDS011;52467;40.114;18.306;2022-12-18T09:12:04;10.57;;;3.33;;
42192;SDS011;52467;40.114;18.306;2022-12-18T09:14:31;14.77;;;3.03;;
42192;SDS011;52467;40.114;18.306;2022-12-18T09:16:59;10.35;;;3.05;;
42192;SDS011;52467;40.114;18.306;2022-12-18T09:19:26;13.70;;;2.97;;
42192;SDS011;52467;40.114;18.306;2022-12-18T09:21:54;9.02;;;2.70;;
42192;SDS011;52467;40.114;18.306;2022-12-18T09:24:22;13.05;;;3.30;;
42192;SDS011;52467;40.114;18.306;2022-12-18T09:26:52;10.95;;;2.90;;
42192;SDS011;52467;40.114;18.306;2022-12-18T09:29:23;10.45;;;2.75;;
42192;SDS011;52467;40.114;18.306;2022-12-18T09:31:50;11.82;;;2.78;;
42192;SDS011;52467;40.114;18.306;2022-12-18T09:34:18;12.20;;;2.55;;
42192;SDS011;52467;40.114;18.306;2022-12-18T09:36:47;15.52;;;2.75;;
42192;SDS011;52467;40.114;18.306;2022-12-18T09:39:15;11.13;;;2.65;;
42192;SDS011;52467;40.114;18.306;2022-12-18T09:41:44;13.55;;;2.85;;
42192;SDS011;52467;40.114;18.306;2022-12-18T09:44:24;6.93;;;2.10;;
42192;SDS011;52467;40.114;18.306;2022-12-18T09:47:27;13.82;;;2.60;;
42192;SDS011;52467;40.114;18.306;2022-12-18T09:50:15;7.10;;;1.80;;
42192;SDS011;52467;40.114;18.306;2022-12-18T09:52:51;14.85;;;2.80;;
42192;SDS011;52467;40.114;18.306;2022-12-18T09:55:37;9.80;;;2.25;;
42192;SDS011;52467;40.114;18.306;2022-12-18T09:58:12;5.70;;;1.88;;
42192;SDS011;52467;40.114;18.306;2022-12-18T10:00:45;11.30;;;2.23;;
42192;SDS011;52467;40.114;18.306;2022-12-18T10:03:13;10.43;;;2.03;;
42192;SDS011;52467;40.114;18.306;2022-12-18T10:11:48;8.40;;;2.33;;
42192;SDS011;52467;40.114;18.306;2022-12-18T10:16:53;6.57;;;1.70;;
42192;SDS011;52467;40.114;18.306;2022-12-18T10:22:25;8.40;;;1.40;;
42192;SDS011;52467;40.114;18.306;2022-12-18T10:27:39;7.95;;;1.60;;
42192;SDS011;52467;40.114;18.306;2022-12-18T10:30:17;8.88;;;1.83;;
42192;SDS011;52467;40.114;18.306;2022-12-18T10:32:45;5.30;;;1.48;;
42192;SDS011;52467;40.114;18.306;2022-12-18T10:35:26;6.35;;;1.48;;
42192;SDS011;52467;40.114;18.306;2022-12-18T10:40:47;9.23;;;1.92;;
42192;SDS011;52467;40.114;18.306;2022-12-18T10:43:19;12.35;;;1.60;;
42192;SDS011;52467;40.114;18.306;2022-12-18T10:46:03;9.70;;;1.70;;
42192;SDS011;52467;40.114;18.306;2022-12-18T10:54:04;6.07;;;2.10;;
42192;SDS011;52467;40.114;18.306;2022-12-18T10:56:45;4.05;;;1.40;;
42192;SDS011;52467;40.114;18.306;2022-12-18T10:59:13;5.43;;;1.60;;
42192;SDS011;52467;40.114;18.306;2022-12-18T11:01:46;4.68;;;1.05;;
42192;SDS011;52467;40.114;18.306;2022-12-18T11:04:28;6.45;;;1.67;;
42192;SDS011;52467;40.114;18.306;2022-12-18T11:07:06;6.00;;;1.50;;
42192;SDS011;52467;40.114;18.306;2022-12-18T11:09:35;4.73;;;1.40;;
42192;SDS011;52467;40.114;18.306;2022-12-18T11:12:14;5.65;;;1.38;;
42192;SDS011;52467;40.114;18.306;2022-12-18T11:14:45;5.95;;;1.50;;
42192;SDS011;52467;40.114;18.306;2022-12-18T11:17:34;4.75;;;1.40;;
42192;SDS011;52467;40.114;18.306;2022-12-18T11:20:03;6.05;;;1.40;;
42192;SDS011;52467;40.114;18.306;2022-12-18T11:22:34;4.43;;;1.80;;
42192;SDS011;52467;40.114;18.306;2022-12-18T11:28:00;7.63;;;1.42;;
42192;SDS011;52467;40.114;18.306;2022-12-18T11:30:48;8.63;;;1.95;;
42192;SDS011;52467;40.114;18.306;2022-12-18T11:33:18;5.60;;;1.20;;
42192;SDS011;52467;40.114;18.306;2022-12-18T11:41:04;3.05;;;1.20;;
42192;SDS011;52467;40.114;18.306;2022-12-18T11:44:16;3.50;;;1.23;;
42192;SDS011;52467;40.114;18.306;2022-12-18T11:46:56;4.43;;;1.40;;
42192;SDS011;52467;40.114;18.306;2022-12-18T11:49:34;5.13;;;1.58;;
42192;SDS011;52467;40.114;18.306;2022-12-18T11:52:16;5.10;;;1.23;;
42192;SDS011;52467;40.114;18.306;2022-12-18T11:54:55;4.40;;;1.40;;
42192;SDS011;52467;40.114;18.306;2022-12-18T12:00:15;8.60;;;1.40;;
42192;SDS011;52467;40.114;18.306;2022-12-18T12:21:40;6.60;;;1.45;;
42192;SDS011;52467;40.114;18.306;2022-12-18T12:30:06;5.95;;;2.08;;
42192;SDS011;52467;40.114;18.306;2022-12-18T12:35:19;4.38;;;1.50;;
42192;SDS011;52467;40.114;18.306;2022-12-18T12:40:21;3.65;;;1.67;;
42192;SDS011;52467;40.114;18.306;2022-12-18T12:46:06;4.75;;;1.70;;
42192;SDS011;52467;40.114;18.306;2022-12-18T12:48:37;5.07;;;1.85;;
42192;SDS011;52467;40.114;18.306;2022-12-18T12:51:25;6.45;;;1.55;;
42192;SDS011;52467;40.114;18.306;2022-12-18T12:53:53;5.30;;;1.83;;
42192;SDS011;52467;40.114;18.306;2022-12-18T12:56:22;5.25;;;1.80;;
42192;SDS011;52467;40.114;18.306;2022-12-18T13:07:15;8.93;;;1.50;;
42192;SDS011;52467;40.114;18.306;2022-12-18T13:12:55;5.43;;;1.30;;
42192;SDS011;52467;40.114;18.306;2022-12-18T13:20:39;5.18;;;1.02;;
42192;SDS011;52467;40.114;18.306;2022-12-18T13:25:52;2.85;;;1.08;;
42192;SDS011;52467;40.114;18.306;2022-12-18T13:31:00;3.28;;;1.15;;
42192;SDS011;52467;40.114;18.306;2022-12-18T13:38:41;4.65;;;1.33;;
42192;SDS011;52467;40.114;18.306;2022-12-18T13:46:28;6.95;;;1.52;;
42192;SDS011;52467;40.114;18.306;2022-12-18T13:49:02;6.60;;;2.00;;
42192;SDS011;52467;40.114;18.306;2022-12-18T13:51:49;7.23;;;1.53;;
42192;SDS011;52467;40.114;18.306;2022-12-18T13:54:19;4.18;;;2.20;;
42192;SDS011;52467;40.114;18.306;2022-12-18T13:57:01;5.13;;;1.60;;
42192;SDS011;52467;40.114;18.306;2022-12-18T13:59:36;4.50;;;1.50;;
42192;SDS011;52467;40.114;18.306;2022-12-18T14:02:12;6.75;;;1.67;;
42192;SDS011;52467;40.114;18.306;2022-12-18T14:04:44;5.10;;;1.60;;
42192;SDS011;52467;40.114;18.306;2022-12-18T14:07:13;4.90;;;2.00;;
42192;SDS011;52467;40.114;18.306;2022-12-18T14:09:52;4.93;;;1.50;;
42192;SDS011;52467;40.114;18.306;2022-12-18T14:12:47;8.95;;;2.03;;
42192;SDS011;52467;40.114;18.306;2022-12-18T14:17:58;11.07;;;1.98;;
42192;SDS011;52467;40.114;18.306;2022-12-18T14:20:30;6.45;;;1.90;;
42192;SDS011;52467;40.114;18.306;2022-12-18T14:22:59;7.37;;;2.10;;
42192;SDS011;52467;40.114;18.306;2022-12-18T14:25:28;7.63;;;2.13;;
42192;SDS011;52467;40.114;18.306;2022-12-18T14:28:04;7.38;;;1.80;;
42192;SDS011;52467;40.114;18.306;2022-12-18T14:30:42;8.23;;;1.83;;
42192;SDS011;52467;40.114;18.306;2022-12-18T14:33:14;6.93;;;1.85;;
42192;SDS011;52467;40.114;18.306;2022-12-18T14:41:21;6.50;;;2.00;;
42192;SDS011;52467;40.114;18.306;2022-12-18T14:43:52;4.32;;;1.70;;
42192;SDS011;52467;40.114;18.306;2022-12-18T14:46:36;8.95;;;2.30;;
42192;SDS011;52467;40.114;18.306;2022-12-18T14:51:54;4.70;;;2.35;;
42192;SDS011;52467;40.114;18.306;2022-12-18T14:54:24;10.50;;;2.65;;
42192;SDS011;52467;40.114;18.306;2022-12-18T14:59:23;10.23;;;2.30;;
42192;SDS011;52467;40.114;18.306;2022-12-18T15:07:17;6.32;;;2.38;;
42192;SDS011;52467;40.114;18.306;2022-12-18T15:23:50;8.02;;;2.72;;
42192;SDS011;52467;40.114;18.306;2022-12-18T15:26:21;8.20;;;2.57;;
42192;SDS011;52467;40.114;18.306;2022-12-18T15:28:50;8.20;;;2.85;;
42192;SDS011;52467;40.114;18.306;2022-12-18T15:31:23;13.35;;;2.60;;
42192;SDS011;52467;40.114;18.306;2022-12-18T15:36:23;10.10;;;3.03;;
42192;SDS011;52467;40.114;18.306;2022-12-18T15:38:53;8.40;;;2.35;;
42192;SDS011;52467;40.114;18.306;2022-12-18T15:41:21;6.28;;;2.67;;
42192;SDS011;52467;40.114;18.306;2022-12-18T15:43:50;8.20;;;2.80;;
42192;SDS011;52467;40.114;18.306;2022-12-18T15:46:19;5.18;;;2.92;;
42192;SDS011;52467;40.114;18.306;2022-12-18T15:48:52;7.20;;;3.50;;
42192;SDS011;52467;40.114;18.306;2022-12-18T15:51:28;13.13;;;3.25;;
42192;SDS011;52467;40.114;18.306;2022-12-18T15:53:57;12.20;;;3.08;;
42192;SDS011;52467;40.114;18.306;2022-12-18T15:56:26;10.13;;;2.83;;
42192;SDS011;52467;40.114;18.306;2022-12-18T15:59:13;7.70;;;2.67;;
42192;SDS011;52467;40.114;18.306;2022-12-18T16:01:43;7.53;;;2.38;;
42192;SDS011;52467;40.114;18.306;2022-12-18T16:04:13;10.65;;;2.70;;
42192;SDS011;52467;40.114;18.306;2022-12-18T16:06:44;11.43;;;3.00;;
42192;SDS011;52467;40.114;18.306;2022-12-18T16:09:31;5.83;;;3.30;;
42192;SDS011;52467;40.114;18.306;2022-12-18T16:11:58;9.45;;;3.70;;
42192;SDS011;52467;40.114;18.306;2022-12-18T16:14:26;9.57;;;3.83;;
42192;SDS011;52467;40.114;18.306;2022-12-18T16:16:58;8.30;;;3.10;;
42192;SDS011;52467;40.114;18.306;2022-12-18T16:19:27;8.88;;;3.70;;
42192;SDS011;52467;40.114;18.306;2022-12-18T16:21:55;9.30;;;3.90;;
42192;SDS011;52467;40.114;18.306;2022-12-18T16:24:24;11.93;;;4.10;;
42192;SDS011;52467;40.114;18.306;2022-12-18T16:26:54;12.20;;;3.95;;
42192;SDS011;52467;40.114;18.306;2022-12-18T16:29:23;13.13;;;5.60;;
42192;SDS011;52467;40.114;18.306;2022-12-18T16:31:54;10.93;;;4.75;;
42192;SDS011;52467;40.114;18.306;2022-12-18T16:34:26;10.07;;;3.70;;
42192;SDS011;52467;40.114;18.306;2022-12-18T16:36:55;10.07;;;3.53;;
42192;SDS011;52467;40.114;18.306;2022-12-18T16:39:28;10.98;;;3.50;;
42192;SDS011;52467;40.114;18.306;2022-12-18T16:41:57;10.00;;;3.70;;
42192;SDS011;52467;40.114;18.306;2022-12-18T16:44:27;13.98;;;4.00;;
42192;SDS011;52467;40.114;18.306;2022-12-18T16:46:54;12.65;;;3.58;;
42192;SDS011;52467;40.114;18.306;2022-12-18T16:49:22;15.32;;;4.20;;
42192;SDS011;52467;40.114;18.306;2022-12-18T16:51:49;8.32;;;3.38;;
42192;SDS011;52467;40.114;18.306;2022-12-18T16:54:17;11.23;;;2.85;;
42192;SDS011;52467;40.114;18.306;2022-12-18T16:56:44;9.23;;;3.67;;
42192;SDS011;52467;40.114;18.306;2022-12-18T16:59:15;9.80;;;3.75;;
42192;SDS011;52467;40.114;18.306;2022-12-18T17:01:42;11.23;;;4.40;;
42192;SDS011;52467;40.114;18.306;2022-12-18T17:04:09;11.85;;;4.70;;
42192;SDS011;52467;40.114;18.306;2022-12-18T17:06:40;10.95;;;4.05;;
42192;SDS011;52467;40.114;18.306;2022-12-18T17:09:13;12.82;;;3.35;;
42192;SDS011;52467;40.114;18.306;2022-12-18T17:11:42;8.65;;;3.67;;
42192;SDS011;52467;40.114;18.306;2022-12-18T17:14:13;8.95;;;4.10;;
42192;SDS011;52467;40.114;18.306;2022-12-18T17:16:42;9.65;;;4.13;;
42192;SDS011;52467;40.114;18.306;2022-12-18T17:19:10;8.88;;;4.15;;
42192;SDS011;52467;40.114;18.306;2022-12-18T17:21:42;10.05;;;3.85;;
42192;SDS011;52467;40.114;18.306;2022-12-18T17:24:10;9.65;;;3.80;;